Hibbing, MN

7:14 PM CDT on April 21, 2015 (GMT -0500)
Chisholm-hibbing | | Change Station
CLOSE
Current Station
Airport
Location: Hibbing,
Elevation: 1352 ft
Nearby Weather Stations

Elev 1352 ft 47.39 °N, 92.84 °W | Updated 21 minutes ago

Snow
Snow
29 °F
Feels Like 16 °F
N
20
Wind Variable Wind from NNW
Gusts 26 mph

Today
High -- | Low -- °F
--% Chance of Precip.
Yesterday
High -- | Low -- °F
Precip. -- in
6:12 AM 8:08 PM
Waxing Crescent, 13% visible
Pressure 29.70 in
Visibility 6.0 miles
Clouds Few 2300 ft
Mostly Cloudy 3600 ft
Overcast 4800 ft
Windchill 16 °F
Dew Point 21 °F
Humidity 72%
Rainfall 0.00 in
Snow Depth Not available.
UV 0 out of 12
Pollen 4.40 out of 12
Air Quality Not available.
Flu Activity Local Activity
METAR KHIB 212353Z AUTO 33017G23KT 6SM -SN FEW023 BKN036 OVC048 M02/M06 A2964 RMK AO2 PK WND 33029/2301 UPB2255E08B28E52SNE2255B08E28B34E48B52 SLP057 P0000 60000 T10171061 10000 21017 51017

More Conditions Fewer Conditions

Pressure 29.70 in
Visibility 6.0 miles
Clouds Few 2300 ft
Mostly Cloudy 3600 ft
Overcast 4800 ft
Windchill 16 °F
Dew Point 21 °F
Humidity 72%
Rainfall 0.00 in
Snow Depth Not available.
UV 0 out of 12
Pollen 4.40 out of 12
Air Quality Not available.
Flu Activity Local Activity
METAR KHIB 212353Z AUTO 33017G23KT 6SM -SN FEW023 BKN036 OVC048 M02/M06 A2964 RMK AO2 PK WND 33029/2301 UPB2255E08B28E52SNE2255B08E28B34E48B52 SLP057 P0000 60000 T10171061 10000 21017 51017

More Conditions Fewer Conditions

10-Day Weather Forecast

Almanac

Astronomy

Apr. 21, 2015 Rise Set
Actual Time
Civil Twilight
Nautical Twilight
Astronomical Twilight
Moon
Length of Visible Light
Length of Day
Tomorrow will be .
, % of the Moon is Illuminated

Today's Extremes

State Highs State Lows

Community

WunderPhotos

Upload Photos

1,815,586 photos uploaded!

WunderBlogs® & News

Nearby

Air Quality

  Air Quality AQ Index Pollutant
Not available.

Snow Depth

Station Depth Elevation

Earthquake Activity

City Distance Mag. Time & Date
Minimum magnitude displayed is 2.5.

Coastal Water Temperatures

Place Temperature

Stations

Nearby Weather Stations

Station Location Temp. Windchill Dew Point Humidity Wind Precip. Elev Updated Type